Time;durP1;ratioP1;P1;durP2;ratioP2;P2;SDS_P1;SDS_P2;PMS_P1;PMS_P2;Temp;Humidity;BMP_temperature;BMP_pressure;BME280_temperature;BME280_humidity;BME280_pressure;Samples;Min_cycle;Max_cycle;Signal;HPM_P1;HPM_P2
2023/10/23 00:02:08;;;;;;;4.43;1.73;;;;;;;;;;5046435;28;20538;-57
2023/10/23 00:04:37;;;;;;;3.37;1.73;;;;;;;;;;5039093;28;21099;-57
2023/10/23 00:07:04;;;;;;;2.20;1.60;;;;;;;;;;5047135;28;20453;-57
2023/10/23 00:09:32;;;;;;;1.80;1.43;;;;;;;;;;5047371;28;20438;-57
2023/10/23 00:11:59;;;;;;;2.33;1.80;;;;;;;;;;5049015;28;20449;-57
2023/10/23 00:14:26;;;;;;;2.83;1.37;;;;;;;;;;5049011;28;20461;-57
2023/10/23 00:16:54;;;;;;;2.50;1.47;;;;;;;;;;5045374;28;20461;-57
2023/10/23 00:19:21;;;;;;;3.77;1.73;;;;;;;;;;5048272;28;20492;-56
2023/10/23 00:21:50;;;;;;;1.97;1.30;;;;;;;;;;5048316;28;20449;-56
2023/10/23 00:24:17;;;;;;;3.70;1.30;;;;;;;;;;5045744;28;21034;-57
2023/10/23 00:26:45;;;;;;;1.80;1.40;;;;;;;;;;5043319;28;20715;-57
2023/10/23 00:29:12;;;;;;;2.70;2.03;;;;;;;;;;5044629;28;21005;-57
2023/10/23 00:31:40;;;;;;;2.80;1.70;;;;;;;;;;5046044;28;20456;-57
2023/10/23 00:34:07;;;;;;;2.63;1.87;;;;;;;;;;5047646;28;20534;-57
2023/10/23 00:36:34;;;;;;;1.90;1.67;;;;;;;;;;5047409;28;20437;-57
2023/10/23 00:39:03;;;;;;;3.13;1.73;;;;;;;;;;5047698;28;20482;-57
2023/10/23 00:41:30;;;;;;;3.07;2.20;;;;;;;;;;5047498;28;20471;-57
2023/10/23 00:43:58;;;;;;;2.83;1.60;;;;;;;;;;5049149;28;20461;-56
2023/10/23 00:46:31;;;;;;;2.87;1.57;;;;;;;;;;5067611;28;20553;-57
2023/10/23 00:48:59;;;;;;;3.10;1.87;;;;;;;;;;5063409;28;20523;-57
2023/10/23 00:51:27;;;;;;;2.37;1.43;;;;;;;;;;5067802;28;20560;-57
2023/10/23 00:53:54;;;;;;;2.07;1.47;;;;;;;;;;5067128;28;20931;-57
2023/10/23 00:56:24;;;;;;;3.07;1.40;;;;;;;;;;5065221;28;20503;-57
2023/10/23 00:58:51;;;;;;;1.83;1.30;;;;;;;;;;5067497;28;20479;-56
2023/10/23 01:01:18;;;;;;;3.40;1.60;;;;;;;;;;5065683;28;20476;-57
2023/10/23 01:03:45;;;;;;;2.13;1.40;;;;;;;;;;5061228;28;20535;-57
2023/10/23 01:06:13;;;;;;;2.20;1.67;;;;;;;;;;5064614;28;20886;-57
2023/10/23 01:08:41;;;;;;;1.90;1.30;;;;;;;;;;5068421;28;20528;-57
2023/10/23 01:11:08;;;;;;;1.70;1.17;;;;;;;;;;5068200;28;20440;-57
2023/10/23 01:13:37;;;;;;;3.20;2.10;;;;;;;;;;5065231;28;20480;-57
2023/10/23 01:16:04;;;;;;;2.57;1.40;;;;;;;;;;5068584;28;20780;-57
2023/10/23 01:18:32;;;;;;;2.13;1.10;;;;;;;;;;5069175;28;20480;-57
2023/10/23 01:20:59;;;;;;;10.00;1.83;;;;;;;;;;5069356;28;20500;-57
2023/10/23 01:23:26;;;;;;;3.53;1.70;;;;;;;;;;5068663;28;20456;-57
2023/10/23 01:25:55;;;;;;;2.60;1.90;;;;;;;;;;5067854;28;20468;-57
2023/10/23 01:28:22;;;;;;;2.20;1.60;;;;;;;;;;5064702;28;20554;-57
2023/10/23 01:30:50;;;;;;;2.60;1.90;;;;;;;;;;5067871;28;20620;-57
2023/10/23 01:33:18;;;;;;;2.20;1.70;;;;;;;;;;5062590;28;20437;-57
2023/10/23 01:35:45;;;;;;;3.00;1.50;;;;;;;;;;5070173;28;20491;-57
2023/10/23 01:38:12;;;;;;;1.97;1.23;;;;;;;;;;5071666;28;20513;-57
2023/10/23 01:40:40;;;;;;;3.33;1.70;;;;;;;;;;5071958;28;20444;-57
2023/10/23 01:43:08;;;;;;;7.73;1.90;;;;;;;;;;5070735;28;20476;-57
2023/10/23 01:45:36;;;;;;;2.00;1.50;;;;;;;;;;5072678;28;20511;-57
2023/10/23 01:48:03;;;;;;;2.10;1.70;;;;;;;;;;5071647;28;21136;-57
2023/10/23 01:50:30;;;;;;;2.07;1.50;;;;;;;;;;5072121;28;20521;-57
2023/10/23 01:52:57;;;;;;;2.03;1.57;;;;;;;;;;5068812;28;20860;-57
2023/10/23 01:55:25;;;;;;;2.33;1.50;;;;;;;;;;5069098;28;20618;-57
2023/10/23 01:57:52;;;;;;;2.40;1.53;;;;;;;;;;5069365;28;20509;-57
2023/10/23 02:00:20;;;;;;;2.43;1.43;;;;;;;;;;5069542;28;20533;-57
2023/10/23 02:02:48;;;;;;;1.93;1.73;;;;;;;;;;5065468;28;20869;-57
2023/10/23 02:05:15;;;;;;;3.20;2.07;;;;;;;;;;5069759;28;20491;-57
2023/10/23 02:07:42;;;;;;;2.50;1.87;;;;;;;;;;5072013;28;20480;-57
2023/10/23 02:10:10;;;;;;;2.60;2.00;;;;;;;;;;5072749;28;20523;-57
2023/10/23 02:12:37;;;;;;;2.60;2.00;;;;;;;;;;5071763;28;20449;-57
2023/10/23 02:15:05;;;;;;;2.33;1.80;;;;;;;;;;5070678;28;20496;-57
2023/10/23 02:17:33;;;;;;;3.90;2.10;;;;;;;;;;5072179;28;20448;-57
2023/10/23 02:20:01;;;;;;;2.10;1.70;;;;;;;;;;5071691;28;21010;-56
2023/10/23 02:22:28;;;;;;;2.80;2.07;;;;;;;;;;5071015;28;20456;-57
2023/10/23 02:24:55;;;;;;;2.60;1.73;;;;;;;;;;5069782;28;20500;-57
2023/10/23 02:27:23;;;;;;;5.60;2.40;;;;;;;;;;5070381;28;20933;-57
2023/10/23 02:29:50;;;;;;;2.20;1.80;;;;;;;;;;5070614;28;20490;-57
2023/10/23 02:32:17;;;;;;;3.53;1.53;;;;;;;;;;5070154;28;20474;-57
2023/10/23 02:34:47;;;;;;;2.50;1.87;;;;;;;;;;5068222;28;20986;-57
2023/10/23 02:37:15;;;;;;;3.07;1.80;;;;;;;;;;5067065;28;20966;-57
2023/10/23 02:39:42;;;;;;;2.50;1.70;;;;;;;;;;5070173;28;20936;-57
2023/10/23 02:42:09;;;;;;;1.90;1.30;;;;;;;;;;5071026;28;20919;-57
2023/10/23 02:44:37;;;;;;;2.50;1.30;;;;;;;;;;5067595;28;20998;-57
2023/10/23 02:47:04;;;;;;;1.60;1.03;;;;;;;;;;5069961;28;20476;-57
2023/10/23 02:49:31;;;;;;;2.33;1.43;;;;;;;;;;5070226;28;20519;-57
2023/10/23 02:52:00;;;;;;;4.43;1.63;;;;;;;;;;5067251;28;20448;-57
2023/10/23 02:54:28;;;;;;;3.50;2.50;;;;;;;;;;5070128;28;20488;-57
2023/10/23 02:56:55;;;;;;;3.30;2.00;;;;;;;;;;5071664;28;20523;-57
2023/10/23 02:59:23;;;;;;;2.60;1.50;;;;;;;;;;5071104;28;20472;-57
2023/10/23 03:01:51;;;;;;;5.17;1.67;;;;;;;;;;5070231;28;20448;-57
2023/10/23 03:04:18;;;;;;;3.40;2.17;;;;;;;;;;5062158;28;20468;-57
2023/10/23 03:06:45;;;;;;;2.83;2.10;;;;;;;;;;5069450;28;20472;-57
2023/10/23 03:09:14;;;;;;;2.03;1.23;;;;;;;;;;5065670;28;20506;-57
2023/10/23 03:11:41;;;;;;;4.67;1.40;;;;;;;;;;5068105;28;20483;-57
2023/10/23 03:14:10;;;;;;;2.77;1.33;;;;;;;;;;5067966;28;20464;-57
2023/10/23 03:16:37;;;;;;;1.70;1.23;;;;;;;;;;5070434;28;21050;-57
2023/10/23 03:19:05;;;;;;;3.10;1.40;;;;;;;;;;5071276;28;20994;-57
2023/10/23 03:21:32;;;;;;;1.97;1.30;;;;;;;;;;5071096;28;20449;-56
2023/10/23 03:24:00;;;;;;;2.77;1.77;;;;;;;;;;5070288;28;20537;-57
2023/10/23 03:26:28;;;;;;;4.10;1.50;;;;;;;;;;5069200;28;20537;-57
2023/10/23 03:28:56;;;;;;;2.70;1.50;;;;;;;;;;5069392;28;20527;-57
2023/10/23 03:31:23;;;;;;;4.47;1.47;;;;;;;;;;5069785;28;20440;-57
2023/10/23 03:33:51;;;;;;;8.40;2.77;;;;;;;;;;5069025;28;20961;-57
2023/10/23 03:36:19;;;;;;;5.67;1.93;;;;;;;;;;5063645;28;20445;-57
2023/10/23 03:38:46;;;;;;;2.40;1.57;;;;;;;;;;5067325;28;20903;-57
2023/10/23 03:41:13;;;;;;;1.90;1.50;;;;;;;;;;5068949;28;20848;-57
2023/10/23 03:43:42;;;;;;;3.80;1.63;;;;;;;;;;5068840;28;20456;-57
2023/10/23 03:46:09;;;;;;;3.07;1.83;;;;;;;;;;5068684;28;20488;-57
2023/10/23 03:48:37;;;;;;;1.80;1.30;;;;;;;;;;5069838;28;20891;-56
2023/10/23 03:51:04;;;;;;;2.20;1.70;;;;;;;;;;5069547;28;20811;-57
2023/10/23 03:53:32;;;;;;;2.33;1.50;;;;;;;;;;5069034;28;20892;-57
2023/10/23 03:55:59;;;;;;;1.93;1.47;;;;;;;;;;5068304;28;20536;-57
2023/10/23 03:58:26;;;;;;;2.00;1.50;;;;;;;;;;5068619;28;20795;-57
2023/10/23 04:00:55;;;;;;;3.80;2.90;;;;;;;;;;5068567;28;20573;-57
2023/10/23 04:03:22;;;;;;;3.30;3.00;;;;;;;;;;5068347;28;20531;-57
2023/10/23 04:05:49;;;;;;;4.03;2.90;;;;;;;;;;5063988;28;20491;-57
2023/10/23 04:08:16;;;;;;;3.10;2.80;;;;;;;;;;5069692;28;20444;-57
2023/10/23 04:10:47;;;;;;;3.17;2.87;;;;;;;;;;5069721;28;20821;-57
2023/10/23 04:13:15;;;;;;;3.53;2.63;;;;;;;;;;5069452;28;20524;-57
2023/10/23 04:15:42;;;;;;;4.00;2.47;;;;;;;;;;5069792;28;20506;-57
2023/10/23 04:18:10;;;;;;;3.00;2.40;;;;;;;;;;5070154;28;20867;-57
2023/10/23 04:20:38;;;;;;;5.17;2.60;;;;;;;;;;5069447;28;20506;-57
2023/10/23 04:23:05;;;;;;;5.00;4.50;;;;;;;;;;5069017;28;20550;-57
2023/10/23 04:25:32;;;;;;;3.77;3.43;;;;;;;;;;5069831;28;20529;-56
2023/10/23 04:27:59;;;;;;;2.77;2.30;;;;;;;;;;5069868;28;20842;-56
2023/10/23 04:30:27;;;;;;;6.43;5.87;;;;;;;;;;5068681;28;20445;-57
2023/10/23 04:32:54;;;;;;;7.03;6.30;;;;;;;;;;5069454;28;20440;-57
2023/10/23 04:35:23;;;;;;;6.27;5.60;;;;;;;;;;5069457;28;20790;-57
2023/10/23 04:37:50;;;;;;;3.30;3.00;;;;;;;;;;5069123;28;20475;-57
2023/10/23 04:40:17;;;;;;;4.60;3.50;;;;;;;;;;5066648;28;20882;-57
2023/10/23 04:42:44;;;;;;;13.60;10.30;;;;;;;;;;5062928;28;20510;-57
2023/10/23 04:45:12;;;;;;;13.10;11.70;;;;;;;;;;5068138;28;20537;-57
2023/10/23 04:47:39;;;;;;;18.53;16.63;;;;;;;;;;5065263;28;20838;-57
2023/10/23 04:50:07;;;;;;;10.57;9.47;;;;;;;;;;5067262;28;20548;-57
2023/10/23 04:52:35;;;;;;;9.87;9.07;;;;;;;;;;5063126;28;20441;-57
2023/10/23 04:55:03;;;;;;;6.33;4.77;;;;;;;;;;5066273;28;21039;-57
2023/10/23 04:57:30;;;;;;;3.30;3.00;;;;;;;;;;5069278;28;20471;-57
2023/10/23 04:59:58;;;;;;;3.30;2.53;;;;;;;;;;5063228;28;21006;-57
2023/10/23 05:02:26;;;;;;;4.00;2.60;;;;;;;;;;5058626;28;20546;-57
2023/10/23 05:04:53;;;;;;;2.40;2.13;;;;;;;;;;5059860;28;20804;-57
2023/10/23 05:07:20;;;;;;;3.93;2.40;;;;;;;;;;5059377;28;20825;-57
2023/10/23 05:09:49;;;;;;;2.10;1.70;;;;;;;;;;5057042;28;20805;-57
2023/10/23 05:12:16;;;;;;;2.17;1.93;;;;;;;;;;5071002;28;20452;-56
2023/10/23 05:14:44;;;;;;;2.40;1.77;;;;;;;;;;5070794;28;20472;-57
2023/10/23 05:17:12;;;;;;;2.77;2.57;;;;;;;;;;5067015;28;20537;-57
2023/10/23 05:19:40;;;;;;;3.80;2.10;;;;;;;;;;5060716;28;20484;-57
2023/10/23 05:22:07;;;;;;;8.93;3.30;;;;;;;;;;5062798;28;20513;-56
2023/10/23 05:24:34;;;;;;;7.30;3.10;;;;;;;;;;5058884;28;20465;-56
2023/10/23 05:27:03;;;;;;;6.33;3.50;;;;;;;;;;5061925;28;20495;-57
2023/10/23 05:29:30;;;;;;;5.27;4.77;;;;;;;;;;5061642;28;20540;-57
2023/10/23 05:31:59;;;;;;;6.03;4.97;;;;;;;;;;5068771;28;20489;-57
2023/10/23 05:34:26;;;;;;;8.20;5.27;;;;;;;;;;5071105;28;20547;-57
2023/10/23 05:36:53;;;;;;;5.13;4.63;;;;;;;;;;5070505;28;20490;-57
2023/10/23 05:39:20;;;;;;;4.20;3.80;;;;;;;;;;5068927;28;20526;-57
2023/10/23 05:41:48;;;;;;;5.00;4.50;;;;;;;;;;5067339;28;20452;-56
2023/10/23 05:44:16;;;;;;;5.00;4.50;;;;;;;;;;5086013;23;20460;-56
2023/10/23 05:46:44;;;;;;;4.40;4.00;;;;;;;;;;5093209;28;20692;-55
2023/10/23 05:49:11;;;;;;;4.80;4.03;;;;;;;;;;5092557;28;20914;-56
2023/10/23 05:51:38;;;;;;;2.03;1.83;;;;;;;;;;5092605;28;20491;-56
2023/10/23 05:54:05;;;;;;;4.17;2.70;;;;;;;;;;5092383;28;20790;-56
2023/10/23 05:56:33;;;;;;;2.70;1.77;;;;;;;;;;5090150;28;20433;-57
2023/10/23 05:59:00;;;;;;;3.17;1.73;;;;;;;;;;5089256;28;20447;-56
2023/10/23 06:01:29;;;;;;;2.23;1.50;;;;;;;;;;5090638;28;20479;-55
2023/10/23 06:03:56;;;;;;;3.03;2.43;;;;;;;;;;5092074;28;20465;-56
2023/10/23 06:06:23;;;;;;;4.53;3.00;;;;;;;;;;5090043;28;20447;-57
2023/10/23 06:08:50;;;;;;;3.87;3.43;;;;;;;;;;5091603;28;20500;-54
2023/10/23 06:11:18;;;;;;;4.93;4.53;;;;;;;;;;5088881;28;20435;-57
2023/10/23 06:13:45;;;;;;;5.13;4.63;;;;;;;;;;5088017;28;20471;-57
2023/10/23 06:16:12;;;;;;;6.70;4.87;;;;;;;;;;5087142;28;20512;-55
2023/10/23 06:18:41;;;;;;;5.47;5.07;;;;;;;;;;5086952;28;20488;-55
2023/10/23 06:21:09;;;;;;;5.80;5.30;;;;;;;;;;5090965;28;20503;-57
2023/10/23 06:23:37;;;;;;;5.53;5.13;;;;;;;;;;5091026;28;20443;-54
2023/10/23 06:26:04;;;;;;;4.73;3.33;;;;;;;;;;5090035;28;20550;-58
2023/10/23 06:28:31;;;;;;;6.03;5.50;;;;;;;;;;5092187;28;20451;-54
2023/10/23 06:31:05;;;;;;;9.10;6.53;;;;;;;;;;5087874;28;20525;-56
2023/10/23 06:33:32;;;;;;;14.03;7.37;;;;;;;;;;5090964;28;20439;-57
2023/10/23 06:36:01;;;;;;;9.67;6.70;;;;;;;;;;5093002;28;20509;-56
2023/10/23 06:38:28;;;;;;;4.97;4.47;;;;;;;;;;5092416;28;20500;-57
2023/10/23 06:40:55;;;;;;;5.07;4.30;;;;;;;;;;5090547;28;20479;-58
2023/10/23 06:43:23;;;;;;;4.83;4.20;;;;;;;;;;5088490;28;20497;-56
2023/10/23 06:45:50;;;;;;;5.60;4.30;;;;;;;;;;5088673;28;20507;-56
2023/10/23 06:48:17;;;;;;;5.00;4.60;;;;;;;;;;5088286;28;20512;-56
2023/10/23 06:50:48;;;;;;;6.33;5.53;;;;;;;;;;5089571;28;20949;-56
2023/10/23 06:53:17;;;;;;;6.50;5.40;;;;;;;;;;5086785;28;20551;-54
2023/10/23 06:55:48;;;;;;;5.90;5.40;;;;;;;;;;5090886;28;20832;-57
2023/10/23 06:58:15;;;;;;;6.27;4.20;;;;;;;;;;5090924;28;20493;-54
2023/10/23 07:00:43;;;;;;;8.37;6.23;;;;;;;;;;5083978;28;20471;-56
2023/10/23 07:03:10;;;;;;;9.10;6.07;;;;;;;;;;5088921;28;20979;-57
2023/10/23 07:05:37;;;;;;;6.77;6.10;;;;;;;;;;5085456;28;20493;-56
2023/10/23 07:08:05;;;;;;;11.10;5.67;;;;;;;;;;5091674;28;20479;-58
2023/10/23 07:10:34;;;;;;;11.70;6.20;;;;;;;;;;5087833;28;20500;-57
2023/10/23 07:13:02;;;;;;;7.10;5.60;;;;;;;;;;5091286;28;20447;-57
2023/10/23 07:15:29;;;;;;;8.23;5.50;;;;;;;;;;5088468;28;20467;-57
2023/10/23 07:17:56;;;;;;;5.70;4.87;;;;;;;;;;5090609;28;20803;-57
2023/10/23 07:20:24;;;;;;;15.63;8.70;;;;;;;;;;5086351;28;20507;-56
2023/10/23 07:22:51;;;;;;;7.83;6.20;;;;;;;;;;5091951;28;20545;-55
2023/10/23 07:25:18;;;;;;;7.93;7.13;;;;;;;;;;5090583;28;20513;-55
2023/10/23 07:27:47;;;;;;;8.20;6.07;;;;;;;;;;5090321;28;20502;-56
2023/10/23 07:30:14;;;;;;;4.90;4.23;;;;;;;;;;5087928;28;20949;-55
2023/10/23 07:32:42;;;;;;;5.43;3.80;;;;;;;;;;5090440;28;20451;-57
2023/10/23 07:35:09;;;;;;;3.93;3.20;;;;;;;;;;5089615;28;20840;-56
2023/10/23 07:37:37;;;;;;;8.27;5.73;;;;;;;;;;5091696;28;20815;-56
2023/10/23 07:40:05;;;;;;;7.30;5.60;;;;;;;;;;5089250;28;20439;-56
2023/10/23 07:42:33;;;;;;;6.60;5.80;;;;;;;;;;5089463;28;20520;-56
2023/10/23 07:45:03;;;;;;;5.10;4.70;;;;;;;;;;5089988;28;20499;-56
2023/10/23 07:47:30;;;;;;;6.13;4.60;;;;;;;;;;5090115;28;20447;-56
2023/10/23 07:49:58;;;;;;;9.93;7.30;;;;;;;;;;5081555;28;20947;-56
2023/10/23 07:52:25;;;;;;;6.17;5.57;;;;;;;;;;5089239;28;20479;-57
2023/10/23 07:54:52;;;;;;;8.80;6.30;;;;;;;;;;5089691;28;20475;-56
2023/10/23 07:57:19;;;;;;;6.37;5.77;;;;;;;;;;5089358;28;20525;-57
2023/10/23 07:59:47;;;;;;;6.73;4.50;;;;;;;;;;5086252;28;20500;-56
2023/10/23 08:02:15;;;;;;;5.50;3.77;;;;;;;;;;5090480;28;20578;-57
2023/10/23 08:04:42;;;;;;;4.07;3.73;;;;;;;;;;5082853;28;20560;-57
2023/10/23 08:07:10;;;;;;;5.37;4.30;;;;;;;;;;5090807;28;20505;-57
2023/10/23 08:09:37;;;;;;;4.23;3.83;;;;;;;;;;5085337;28;20453;-55
2023/10/23 08:12:05;;;;;;;4.97;4.50;;;;;;;;;;5090263;28;20467;-56
2023/10/23 08:14:32;;;;;;;3.03;2.40;;;;;;;;;;5086282;28;20467;-57
2023/10/23 08:16:59;;;;;;;3.03;2.63;;;;;;;;;;5089115;28;20496;-56
2023/10/23 08:19:28;;;;;;;5.60;2.10;;;;;;;;;;5083609;28;20448;-55
2023/10/23 08:21:55;;;;;;;2.93;2.70;;;;;;;;;;5078794;28;20673;-57
2023/10/23 08:24:22;;;;;;;3.40;2.73;;;;;;;;;;5089001;28;20520;-56
2023/10/23 08:26:50;;;;;;;2.60;1.73;;;;;;;;;;5090307;28;20521;-58
2023/10/23 08:29:18;;;;;;;2.80;1.90;;;;;;;;;;5086921;28;20446;-55
2023/10/23 08:31:45;;;;;;;3.07;2.60;;;;;;;;;;5084627;28;20968;-55
2023/10/23 08:34:12;;;;;;;3.27;2.03;;;;;;;;;;5088547;28;20525;-56
2023/10/23 08:36:41;;;;;;;2.40;1.93;;;;;;;;;;5088276;28;20470;-57
2023/10/23 08:39:08;;;;;;;3.80;2.10;;;;;;;;;;5089967;28;20961;-56
2023/10/23 08:41:36;;;;;;;3.80;1.90;;;;;;;;;;5086165;28;20879;-56
2023/10/23 08:44:04;;;;;;;2.80;2.27;;;;;;;;;;5086866;28;20446;-58
2023/10/23 08:46:33;;;;;;;2.57;2.10;;;;;;;;;;5086327;28;20527;-56
2023/10/23 08:49:00;;;;;;;2.13;1.60;;;;;;;;;;5086022;28;20478;-57
2023/10/23 08:51:28;;;;;;;2.07;1.70;;;;;;;;;;5085686;28;20449;-56
2023/10/23 08:54:01;;;;;;;3.93;2.13;;;;;;;;;;5086197;28;20524;-56
2023/10/23 08:56:28;;;;;;;3.27;2.80;;;;;;;;;;5087643;28;20848;-57
2023/10/23 08:58:59;;;;;;;3.50;2.20;;;;;;;;;;5089989;28;21011;-57
2023/10/23 09:01:26;;;;;;;3.17;1.90;;;;;;;;;;5088290;28;20475;-55
2023/10/23 09:03:54;;;;;;;2.40;2.20;;;;;;;;;;5089404;28;20439;-56
2023/10/23 09:06:21;;;;;;;2.80;2.13;;;;;;;;;;5089759;28;20447;-54
2023/10/23 09:08:48;;;;;;;3.77;1.70;;;;;;;;;;5086257;28;20439;-56
2023/10/23 09:11:17;;;;;;;2.23;1.80;;;;;;;;;;5090122;28;20447;-55
2023/10/23 09:13:44;;;;;;;2.60;2.40;;;;;;;;;;5085819;28;20443;-58
2023/10/23 09:16:12;;;;;;;3.13;2.83;;;;;;;;;;5085328;28;20467;-56
2023/10/23 09:18:50;;;;;;;2.43;1.90;;;;;;;;;;5085569;28;20528;-56
2023/10/23 09:21:17;;;;;;;4.43;2.57;;;;;;;;;;5085386;28;20546;-55
2023/10/23 09:23:51;;;;;;;4.33;2.40;;;;;;;;;;5088535;28;20451;-56
2023/10/23 09:26:20;;;;;;;2.83;2.30;;;;;;;;;;5078522;28;20455;-56
2023/10/23 09:28:49;;;;;;;2.23;1.83;;;;;;;;;;5087700;28;20525;-58
2023/10/23 09:31:16;;;;;;;4.07;2.43;;;;;;;;;;5084604;28;20449;-56
2023/10/23 09:33:45;;;;;;;2.70;2.07;;;;;;;;;;5088592;28;20539;-56
2023/10/23 09:36:13;;;;;;;3.20;2.30;;;;;;;;;;5089244;28;20686;-56
2023/10/23 09:38:40;;;;;;;3.57;2.70;;;;;;;;;;5085176;28;20477;-56
2023/10/23 09:41:09;;;;;;;2.80;2.57;;;;;;;;;;5089201;28;20548;-57
2023/10/23 09:43:45;;;;;;;3.03;2.33;;;;;;;;;;5088923;28;20930;-57
2023/10/23 09:46:12;;;;;;;3.17;1.93;;;;;;;;;;5087825;28;20926;-55
2023/10/23 09:48:42;;;;;;;2.30;1.80;;;;;;;;;;5085386;28;20448;-56
2023/10/23 09:51:14;;;;;;;4.13;2.13;;;;;;;;;;5086687;28;20439;-55
2023/10/23 09:53:42;;;;;;;2.47;1.70;;;;;;;;;;5088217;28;20356;-56
2023/10/23 09:56:10;;;;;;;4.20;2.40;;;;;;;;;;5089028;28;20221;-56
2023/10/23 09:58:40;;;;;;;3.23;2.20;;;;;;;;;;5092428;28;20439;-54
2023/10/23 10:01:11;;;;;;;3.13;2.30;;;;;;;;;;5091947;28;20479;-56
2023/10/23 10:03:40;;;;;;;2.97;2.30;;;;;;;;;;5092723;28;20444;-57
2023/10/23 10:06:13;;;;;;;2.77;2.00;;;;;;;;;;5093012;28;20459;-57
2023/10/23 10:08:43;;;;;;;3.03;2.17;;;;;;;;;;5084236;28;20949;-56
2023/10/23 10:11:12;;;;;;;4.00;2.10;;;;;;;;;;5082143;28;20543;-58
2023/10/23 10:13:41;;;;;;;3.17;2.03;;;;;;;;;;5079668;28;20941;-56
2023/10/23 10:16:09;;;;;;;2.33;1.80;;;;;;;;;;5082726;28;20463;-56
2023/10/23 10:18:36;;;;;;;2.40;2.17;;;;;;;;;;5081622;28;20436;-56
2023/10/23 10:21:05;;;;;;;2.90;2.13;;;;;;;;;;5079742;28;20482;-56
2023/10/23 10:23:35;;;;;;;3.10;1.90;;;;;;;;;;5081948;28;20996;-56
2023/10/23 10:26:03;;;;;;;2.53;2.00;;;;;;;;;;5081859;28;20491;-57
2023/10/23 10:28:30;;;;;;;3.30;2.47;;;;;;;;;;5079427;28;20444;-55
2023/10/23 10:30:59;;;;;;;2.80;2.10;;;;;;;;;;5080068;28;20497;-54
2023/10/23 10:33:29;;;;;;;2.17;1.80;;;;;;;;;;5078357;28;20819;-55
2023/10/23 10:35:59;;;;;;;6.53;3.30;;;;;;;;;;5077270;28;20468;-57
2023/10/23 10:38:27;;;;;;;4.33;2.07;;;;;;;;;;5078256;28;20725;-56
2023/10/23 10:40:55;;;;;;;4.20;2.17;;;;;;;;;;5076517;28;20868;-55
2023/10/23 10:43:24;;;;;;;2.30;1.80;;;;;;;;;;5084356;28;20432;-57
2023/10/23 10:45:52;;;;;;;2.10;1.80;;;;;;;;;;5079298;28;20477;-56
2023/10/23 10:48:21;;;;;;;3.50;2.00;;;;;;;;;;5086344;28;20451;-57
2023/10/23 10:50:48;;;;;;;3.60;1.90;;;;;;;;;;5087243;28;20440;-57
2023/10/23 10:53:16;;;;;;;3.40;1.63;;;;;;;;;;5090023;28;20439;-56
2023/10/23 10:55:45;;;;;;;2.87;1.70;;;;;;;;;;5088732;28;20491;-57
2023/10/23 10:58:12;;;;;;;1.90;1.40;;;;;;;;;;5090364;28;20530;-56
2023/10/23 11:00:39;;;;;;;2.83;1.70;;;;;;;;;;5090775;28;20447;-56
2023/10/23 11:03:07;;;;;;;2.43;1.80;;;;;;;;;;5082196;28;20894;-58
2023/10/23 11:05:38;;;;;;;5.33;2.30;;;;;;;;;;5089342;28;20572;-58
2023/10/23 11:08:05;;;;;;;3.27;1.90;;;;;;;;;;5084592;28;20968;-57
2023/10/23 11:10:33;;;;;;;2.60;2.17;;;;;;;;;;5085839;28;20475;-57
2023/10/23 11:13:01;;;;;;;3.40;2.10;;;;;;;;;;5081855;28;20466;-55
2023/10/23 11:15:28;;;;;;;2.60;2.00;;;;;;;;;;5082005;28;20905;-54
2023/10/23 11:17:55;;;;;;;3.73;1.80;;;;;;;;;;5080122;28;20497;-53
2023/10/23 11:20:23;;;;;;;3.93;2.23;;;;;;;;;;5084808;28;20536;-55
2023/10/23 11:22:51;;;;;;;4.17;1.70;;;;;;;;;;5081671;28;20480;-55
2023/10/23 11:25:19;;;;;;;2.43;1.87;;;;;;;;;;5087213;28;20926;-55
2023/10/23 11:27:51;;;;;;;2.10;1.53;;;;;;;;;;5083364;28;20493;-57
2023/10/23 11:30:18;;;;;;;4.00;2.30;;;;;;;;;;5087177;28;20532;-55
2023/10/23 11:32:46;;;;;;;2.73;1.63;;;;;;;;;;5075317;28;20424;-54
2023/10/23 11:35:13;;;;;;;2.47;1.67;;;;;;;;;;5074813;28;20453;-54
2023/10/23 11:37:41;;;;;;;2.73;1.73;;;;;;;;;;5075176;28;20468;-58
2023/10/23 11:40:11;;;;;;;3.10;2.20;;;;;;;;;;5077293;28;20436;-55
2023/10/23 11:42:45;;;;;;;2.80;1.90;;;;;;;;;;5078335;28;20583;-54
2023/10/23 11:45:12;;;;;;;2.73;2.10;;;;;;;;;;5104803;22;20921;-59
2023/10/23 11:47:39;;;;;;;3.07;2.50;;;;;;;;;;5091026;28;20439;-59
2023/10/23 11:50:10;;;;;;;4.57;2.17;;;;;;;;;;5090840;28;20500;-59
2023/10/23 11:52:38;;;;;;;2.00;1.70;;;;;;;;;;5083680;28;20446;-60
2023/10/23 11:55:06;;;;;;;2.90;1.80;;;;;;;;;;5076623;28;20525;-60
2023/10/23 11:57:35;;;;;;;2.03;1.70;;;;;;;;;;5070164;28;20532;-60
2023/10/23 12:00:06;;;;;;;2.00;1.47;;;;;;;;;;5068562;28;20437;-60
2023/10/23 12:02:33;;;;;;;7.90;3.30;;;;;;;;;;5069660;28;20472;-60
2023/10/23 12:05:01;;;;;;;2.70;1.80;;;;;;;;;;5070364;28;20456;-60
2023/10/23 12:07:28;;;;;;;2.80;2.43;;;;;;;;;;5068967;28;20452;-59
2023/10/23 12:09:55;;;;;;;3.23;1.70;;;;;;;;;;5068383;28;20437;-60
2023/10/23 12:12:23;;;;;;;3.80;1.80;;;;;;;;;;5071661;28;20441;-61
2023/10/23 12:14:51;;;;;;;3.20;1.50;;;;;;;;;;5069841;28;20548;-60
2023/10/23 12:17:19;;;;;;;2.20;1.87;;;;;;;;;;5070386;28;20490;-61
2023/10/23 12:19:46;;;;;;;2.20;1.50;;;;;;;;;;5069848;28;20955;-59
2023/10/23 12:22:13;;;;;;;3.40;1.70;;;;;;;;;;5070210;28;20912;-60
2023/10/23 12:24:40;;;;;;;2.83;1.63;;;;;;;;;;5070326;28;20460;-61
2023/10/23 12:27:08;;;;;;;3.33;1.87;;;;;;;;;;5070370;28;20498;-59
2023/10/23 12:29:35;;;;;;;2.33;1.87;;;;;;;;;;5069368;28;20505;-60
2023/10/23 12:32:04;;;;;;;4.23;2.30;;;;;;;;;;5069939;28;20437;-59
2023/10/23 12:34:31;;;;;;;2.33;1.73;;;;;;;;;;5069180;28;20582;-59
2023/10/23 12:36:59;;;;;;;4.53;2.83;;;;;;;;;;5069749;28;20440;-59
2023/10/23 12:39:26;;;;;;;3.53;2.53;;;;;;;;;;5071484;28;20449;-59
2023/10/23 12:41:53;;;;;;;5.43;2.53;;;;;;;;;;5069588;28;20499;-61
2023/10/23 12:44:20;;;;;;;4.87;2.80;;;;;;;;;;5068505;28;20441;-59
2023/10/23 12:46:48;;;;;;;3.67;2.77;;;;;;;;;;5057884;28;20465;-61
2023/10/23 12:49:16;;;;;;;3.30;2.90;;;;;;;;;;5061339;28;20448;-59
2023/10/23 12:51:44;;;;;;;4.27;2.87;;;;;;;;;;5068610;28;20447;-61
2023/10/23 12:54:11;;;;;;;5.50;3.50;;;;;;;;;;5068240;28;20432;-60
2023/10/23 12:56:38;;;;;;;3.63;3.10;;;;;;;;;;5063370;28;20542;-60
2023/10/23 12:59:06;;;;;;;3.47;2.93;;;;;;;;;;5068421;28;20498;-60
2023/10/23 13:01:33;;;;;;;7.20;4.10;;;;;;;;;;5069319;28;20440;-61
2023/10/23 13:04:00;;;;;;;19.90;5.07;;;;;;;;;;5068893;28;20437;-61
2023/10/23 13:06:29;;;;;;;5.30;2.80;;;;;;;;;;5069021;28;20460;-60
2023/10/23 13:08:56;;;;;;;4.27;2.13;;;;;;;;;;5069006;28;20727;-59
2023/10/23 13:11:24;;;;;;;3.40;2.33;;;;;;;;;;5065208;28;20498;-60
2023/10/23 13:13:51;;;;;;;12.20;3.60;;;;;;;;;;5069046;28;20637;-60
2023/10/23 13:16:18;;;;;;;7.77;3.17;;;;;;;;;;5069342;28;20456;-59
2023/10/23 13:18:45;;;;;;;6.05;2.65;;;;;;;;;;5068083;28;20438;-61
2023/10/23 13:21:12;;;;;;;3.30;2.27;;;;;;;;;;5070396;28;20202;-59
2023/10/23 13:23:41;;;;;;;4.53;3.10;;;;;;;;;;5063911;28;20889;-59
2023/10/23 13:26:09;;;;;;;3.40;2.10;;;;;;;;;;5066166;28;20452;-59
2023/10/23 13:28:36;;;;;;;3.13;2.33;;;;;;;;;;5064103;28;20460;-60
2023/10/23 13:31:03;;;;;;;2.57;2.10;;;;;;;;;;5067531;28;20523;-61
2023/10/23 13:33:31;;;;;;;2.80;2.23;;;;;;;;;;5071622;28;20428;-59
2023/10/23 13:35:59;;;;;;;13.67;4.53;;;;;;;;;;5072072;28;20456;-59
2023/10/23 13:38:26;;;;;;;5.80;3.67;;;;;;;;;;5072945;28;20448;-60
2023/10/23 13:40:55;;;;;;;5.43;2.63;;;;;;;;;;5072267;28;20448;-59
2023/10/23 13:43:24;;;;;;;16.07;4.23;;;;;;;;;;5069445;28;21109;-59
2023/10/23 13:45:52;;;;;;;3.50;2.30;;;;;;;;;;5073742;28;20514;-59
2023/10/23 13:48:19;;;;;;;3.73;2.83;;;;;;;;;;5072712;28;20527;-59
2023/10/23 13:50:49;;;;;;;173.20;27.50;;;;;;;;;;5075272;28;20440;-59
2023/10/23 13:53:18;;;;;;;5.60;2.90;;;;;;;;;;5071972;28;20440;-59
2023/10/23 13:55:45;;;;;;;70.73;11.80;;;;;;;;;;5072227;28;20456;-59
2023/10/23 13:58:14;;;;;;;6.90;4.20;;;;;;;;;;5069346;28;20460;-59
2023/10/23 14:00:41;;;;;;;6.53;2.60;;;;;;;;;;5066666;28;20992;-59
2023/10/23 14:03:09;;;;;;;2.70;2.03;;;;;;;;;;5070184;28;20472;-58
2023/10/23 14:05:37;;;;;;;3.43;2.57;;;;;;;;;;5072521;28;20534;-59
2023/10/23 14:08:04;;;;;;;3.30;2.80;;;;;;;;;;5071621;28;20436;-59
2023/10/23 14:10:32;;;;;;;4.27;2.80;;;;;;;;;;5072527;28;20436;-59
2023/10/23 14:12:59;;;;;;;3.40;2.90;;;;;;;;;;5072068;28;20594;-59
2023/10/23 14:15:28;;;;;;;3.77;3.10;;;;;;;;;;5072166;28;20525;-58
2023/10/23 14:17:55;;;;;;;4.63;2.60;;;;;;;;;;5071888;28;20589;-58
2023/10/23 14:20:23;;;;;;;2.77;2.50;;;;;;;;;;5071885;28;20800;-59
2023/10/23 14:22:50;;;;;;;3.70;2.83;;;;;;;;;;5073043;28;20507;-59
2023/10/23 14:25:17;;;;;;;3.40;2.77;;;;;;;;;;5071726;28;20456;-59
2023/10/23 14:27:44;;;;;;;3.50;2.60;;;;;;;;;;5068864;28;20444;-60
2023/10/23 14:30:12;;;;;;;3.33;2.90;;;;;;;;;;5069466;28;20480;-59
2023/10/23 14:32:42;;;;;;;5.67;3.23;;;;;;;;;;5071078;28;20460;-59
2023/10/23 14:35:09;;;;;;;5.13;3.10;;;;;;;;;;5069904;28;20495;-59
2023/10/23 14:37:37;;;;;;;4.43;2.60;;;;;;;;;;5071390;28;20440;-59
2023/10/23 14:40:05;;;;;;;3.13;2.67;;;;;;;;;;5070727;28;20445;-59
2023/10/23 14:42:32;;;;;;;4.33;3.70;;;;;;;;;;5070919;28;20533;-58
2023/10/23 14:45:00;;;;;;;5.10;3.60;;;;;;;;;;5071031;28;20495;-58
2023/10/23 14:47:27;;;;;;;4.07;3.67;;;;;;;;;;5071453;28;20521;-60